BAW338 EGLL-LFMN
Flight info
| Callsign | BAW338 |
|---|---|
| Flight time | 1h 34m |
| Altitude | 37000 |
| Route | MODM1J MODMI M185 MID UL612 RESMI UM728 KETEX KOTIS KUKOR UTUVA LERGA LIQID LATAM TUNUR NISAR NISA8R |
| Aircraft | A20N/M-SDE3FGHIRWY/LB1 |
Departure
| Time | 2026-05-05 19:53 |
|---|---|
| Airport | London Heathrow Airport (EGLL) |
Arrival
| Time | 2026-05-05 21:28 |
|---|---|
| Airport | Nice-Côte d'Azur Airport (LFMN) |
| Time | Latitude | Longitude | Altitude | Speed | Heading |
|---|---|---|---|---|---|
| 2026-05-05 19:18 | 51.47308 | -0.48037 | 97 ft | 0 kts | 270° |
| 2026-05-05 19:40 | 51.47308 | -0.48007 | 97 ft | 4 kts | 269° |
| 2026-05-05 19:40 | 51.47309 | -0.47963 | 97 ft | 4 kts | 266° |
| 2026-05-05 19:40 | 51.47312 | -0.47921 | 97 ft | 4 kts | 257° |
| 2026-05-05 19:40 | 51.47321 | -0.47883 | 97 ft | 4 kts | 219° |
| 2026-05-05 19:41 | 51.47331 | -0.47874 | 97 ft | 0 kts | 178° |
| 2026-05-05 19:42 | 51.47330 | -0.47874 | 97 ft | 0 kts | 178° |
| 2026-05-05 19:44 | 51.47329 | -0.47874 | 97 ft | 1 kts | 178° |
| 2026-05-05 19:45 | 51.47292 | -0.47873 | 97 ft | 10 kts | 179° |
| 2026-05-05 19:45 | 51.47197 | -0.47872 | 97 ft | 17 kts | 180° |
| 2026-05-05 19:45 | 51.47073 | -0.47871 | 97 ft | 19 kts | 180° |
| 2026-05-05 19:45 | 51.46933 | -0.47870 | 97 ft | 21 kts | 180° |
| 2026-05-05 19:46 | 51.46785 | -0.47868 | 97 ft | 15 kts | 179° |
| 2026-05-05 19:46 | 51.46684 | -0.47867 | 97 ft | 11 kts | 181° |
| 2026-05-05 19:46 | 51.46655 | -0.47943 | 97 ft | 10 kts | 269° |
| 2026-05-05 19:46 | 51.46654 | -0.48056 | 97 ft | 10 kts | 269° |
| 2026-05-05 19:47 | 51.46653 | -0.48105 | 97 ft | 0 kts | 269° |
| 2026-05-05 19:47 | 51.46653 | -0.48121 | 97 ft | 4 kts | 269° |
| 2026-05-05 19:48 | 51.46653 | -0.48204 | 97 ft | 9 kts | 270° |
| 2026-05-05 19:48 | 51.46653 | -0.48319 | 97 ft | 11 kts | 270° |
| 2026-05-05 19:48 | 51.46651 | -0.48456 | 97 ft | 8 kts | 260° |
| 2026-05-05 19:48 | 51.46609 | -0.48468 | 97 ft | 8 kts | 180° |
| 2026-05-05 19:49 | 51.46592 | -0.48468 | 97 ft | 0 kts | 180° |
| 2026-05-05 19:50 | 51.46581 | -0.48468 | 97 ft | 3 kts | 180° |
| 2026-05-05 19:50 | 51.46541 | -0.48468 | 97 ft | 10 kts | 180° |
| 2026-05-05 19:50 | 51.46480 | -0.48443 | 97 ft | 9 kts | 100° |
| 2026-05-05 19:51 | 51.46479 | -0.48404 | 97 ft | 0 kts | 89° |
| 2026-05-05 19:52 | 51.46479 | -0.48403 | 97 ft | 0 kts | 89° |
| 2026-05-05 19:52 | 51.46479 | -0.48399 | 97 ft | 2 kts | 89° |
| 2026-05-05 19:53 | 51.46480 | -0.48191 | 97 ft | 49 kts | 88° |
| 2026-05-05 19:53 | 51.46483 | -0.47259 | 98 ft | 117 kts | 89° |
| 2026-05-05 19:53 | 51.46485 | -0.45658 | 114 ft | 166 kts | 88° |
| 2026-05-05 19:53 | 51.46496 | -0.43824 | 725 ft | 162 kts | 86° |
| 2026-05-05 19:54 | 51.46538 | -0.42035 | 1402 ft | 160 kts | 87° |
| 2026-05-05 19:54 | 51.46237 | -0.40315 | 1902 ft | 168 kts | 124° |
| 2026-05-05 19:54 | 51.45429 | -0.38924 | 2362 ft | 175 kts | 128° |
| 2026-05-05 19:54 | 51.44502 | -0.37516 | 2668 ft | 195 kts | 144° |
| 2026-05-05 19:55 | 51.43199 | -0.36649 | 3062 ft | 210 kts | 161° |
| 2026-05-05 19:55 | 51.41748 | -0.35993 | 3482 ft | 224 kts | 165° |
| 2026-05-05 19:55 | 51.40121 | -0.35719 | 3827 ft | 246 kts | 185° |
| 2026-05-05 19:55 | 51.38451 | -0.36577 | 4326 ft | 261 kts | 207° |
| 2026-05-05 19:56 | 51.36833 | -0.38028 | 4841 ft | 274 kts | 210° |
| 2026-05-05 19:56 | 51.35115 | -0.39507 | 5278 ft | 283 kts | 206° |
| 2026-05-05 19:56 | 51.33352 | -0.40817 | 5544 ft | 282 kts | 204° |
| 2026-05-05 19:56 | 51.31556 | -0.42076 | 5796 ft | 283 kts | 204° |
| 2026-05-05 19:57 | 51.29762 | -0.43424 | 5984 ft | 284 kts | 206° |
| 2026-05-05 19:57 | 51.28586 | -0.44372 | 6004 ft | 284 kts | 207° |
| 2026-05-05 19:57 | 51.26237 | -0.46291 | 6004 ft | 284 kts | 207° |
| 2026-05-05 19:57 | 51.24468 | -0.47720 | 6001 ft | 284 kts | 206° |
| 2026-05-05 19:58 | 51.22696 | -0.49129 | 6001 ft | 284 kts | 206° |
| 2026-05-05 19:58 | 51.20917 | -0.50496 | 6006 ft | 284 kts | 205° |
| 2026-05-05 19:58 | 51.19132 | -0.51856 | 6021 ft | 285 kts | 206° |
| 2026-05-05 19:58 | 51.17348 | -0.53236 | 6024 ft | 284 kts | 206° |
| 2026-05-05 19:59 | 51.15577 | -0.54617 | 6014 ft | 284 kts | 206° |
| 2026-05-05 19:59 | 51.13799 | -0.56003 | 6132 ft | 283 kts | 206° |
| 2026-05-05 19:59 | 51.12020 | -0.57383 | 6693 ft | 286 kts | 206° |
| 2026-05-05 19:59 | 51.10232 | -0.58755 | 7474 ft | 287 kts | 205° |
| 2026-05-05 20:00 | 51.08420 | -0.60144 | 8202 ft | 290 kts | 205° |
| 2026-05-05 20:00 | 51.06521 | -0.61253 | 8902 ft | 292 kts | 190° |
| 2026-05-05 20:00 | 51.04503 | -0.61242 | 9575 ft | 292 kts | 165° |
| 2026-05-05 20:00 | 51.02655 | -0.59930 | 10224 ft | 293 kts | 146° |
| 2026-05-05 20:01 | 51.00989 | -0.58059 | 10718 ft | 303 kts | 142° |
| 2026-05-05 20:01 | 50.99257 | -0.56031 | 11084 ft | 316 kts | 143° |
| 2026-05-05 20:01 | 50.97401 | -0.53930 | 11415 ft | 331 kts | 144° |
| 2026-05-05 20:01 | 50.95461 | -0.51838 | 11732 ft | 343 kts | 146° |
| 2026-05-05 20:02 | 50.93449 | -0.49728 | 12249 ft | 348 kts | 146° |
| 2026-05-05 20:02 | 50.91444 | -0.47633 | 12811 ft | 351 kts | 146° |
| 2026-05-05 20:02 | 50.89533 | -0.45135 | 13361 ft | 354 kts | 131° |
| 2026-05-05 20:02 | 50.88051 | -0.42002 | 13927 ft | 356 kts | 123° |
| 2026-05-05 20:03 | 50.86709 | -0.38692 | 14470 ft | 359 kts | 121° |
| 2026-05-05 20:03 | 50.85420 | -0.35346 | 15025 ft | 362 kts | 120° |
| 2026-05-05 20:03 | 50.84118 | -0.31909 | 15577 ft | 365 kts | 120° |
| 2026-05-05 20:03 | 50.82814 | -0.28448 | 16115 ft | 368 kts | 120° |
| 2026-05-05 20:04 | 50.81503 | -0.24963 | 16644 ft | 370 kts | 120° |
| 2026-05-05 20:04 | 50.80182 | -0.21452 | 17161 ft | 373 kts | 120° |
| 2026-05-05 20:04 | 50.78846 | -0.17903 | 17670 ft | 376 kts | 120° |
| 2026-05-05 20:04 | 50.77505 | -0.14336 | 18169 ft | 379 kts | 120° |
| 2026-05-05 20:05 | 50.76131 | -0.10854 | 18640 ft | 382 kts | 126° |
| 2026-05-05 20:05 | 50.74213 | -0.07857 | 19084 ft | 384 kts | 144° |
| 2026-05-05 20:05 | 50.71872 | -0.05803 | 19539 ft | 386 kts | 155° |
| 2026-05-05 20:05 | 50.69390 | -0.04145 | 19970 ft | 388 kts | 159° |
| 2026-05-05 20:06 | 50.66873 | -0.02621 | 20387 ft | 391 kts | 160° |
| 2026-05-05 20:06 | 50.64293 | -0.01116 | 20845 ft | 393 kts | 159° |
| 2026-05-05 20:06 | 50.61868 | 0.00849 | 21288 ft | 395 kts | 147° |
| 2026-05-05 20:06 | 50.59615 | 0.03363 | 21726 ft | 397 kts | 142° |
| 2026-05-05 20:07 | 50.58163 | 0.05122 | 22015 ft | 398 kts | 142° |
| 2026-05-05 20:07 | 50.55968 | 0.07802 | 22440 ft | 400 kts | 142° |
| 2026-05-05 20:07 | 50.53732 | 0.10430 | 22833 ft | 403 kts | 144° |
| 2026-05-05 20:07 | 50.51437 | 0.12990 | 23215 ft | 405 kts | 145° |
| 2026-05-05 20:08 | 50.49111 | 0.15512 | 23587 ft | 407 kts | 145° |
| 2026-05-05 20:08 | 50.46768 | 0.18054 | 23948 ft | 410 kts | 145° |
| 2026-05-05 20:08 | 50.44425 | 0.20635 | 24302 ft | 412 kts | 144° |
| 2026-05-05 20:08 | 50.42104 | 0.23224 | 24665 ft | 414 kts | 144° |
| 2026-05-05 20:09 | 50.39737 | 0.25873 | 25037 ft | 415 kts | 144° |
| 2026-05-05 20:09 | 50.37375 | 0.28500 | 25384 ft | 417 kts | 144° |
| 2026-05-05 20:09 | 50.35002 | 0.31121 | 25727 ft | 418 kts | 144° |
| 2026-05-05 20:09 | 50.32613 | 0.33749 | 26064 ft | 420 kts | 144° |
| 2026-05-05 20:10 | 50.30218 | 0.36383 | 26392 ft | 421 kts | 145° |
| 2026-05-05 20:10 | 50.27758 | 0.38886 | 26727 ft | 422 kts | 148° |
| 2026-05-05 20:10 | 50.25284 | 0.41277 | 27041 ft | 424 kts | 148° |
| 2026-05-05 20:10 | 50.22725 | 0.43699 | 27357 ft | 425 kts | 148° |
| 2026-05-05 20:11 | 50.20187 | 0.46107 | 27681 ft | 426 kts | 148° |
| 2026-05-05 20:11 | 50.17685 | 0.48506 | 27974 ft | 428 kts | 148° |
| 2026-05-05 20:11 | 50.15115 | 0.50991 | 28285 ft | 429 kts | 148° |
| 2026-05-05 20:11 | 50.12576 | 0.53448 | 28588 ft | 430 kts | 148° |
| 2026-05-05 20:12 | 50.10061 | 0.55869 | 28884 ft | 431 kts | 148° |
| 2026-05-05 20:12 | 50.07494 | 0.58329 | 29175 ft | 432 kts | 148° |
| 2026-05-05 20:12 | 50.04925 | 0.60783 | 29458 ft | 434 kts | 148° |
| 2026-05-05 20:12 | 50.02358 | 0.63235 | 29726 ft | 435 kts | 148° |
| 2026-05-05 20:13 | 49.99767 | 0.65712 | 30015 ft | 436 kts | 148° |
| 2026-05-05 20:13 | 49.97184 | 0.68178 | 30315 ft | 436 kts | 148° |
| 2026-05-05 20:13 | 49.94588 | 0.70652 | 30550 ft | 438 kts | 147° |
| 2026-05-05 20:13 | 49.91985 | 0.73131 | 30791 ft | 440 kts | 147° |
| 2026-05-05 20:14 | 49.89372 | 0.75614 | 31080 ft | 440 kts | 148° |
| 2026-05-05 20:14 | 49.86765 | 0.78089 | 31393 ft | 439 kts | 148° |
| 2026-05-05 20:14 | 49.84165 | 0.80554 | 31708 ft | 438 kts | 148° |
| 2026-05-05 20:14 | 49.81560 | 0.83020 | 32050 ft | 436 kts | 148° |
| 2026-05-05 20:15 | 49.78975 | 0.85464 | 32345 ft | 436 kts | 148° |
| 2026-05-05 20:15 | 49.76386 | 0.87908 | 32639 ft | 435 kts | 148° |
| 2026-05-05 20:15 | 49.73806 | 0.90341 | 32957 ft | 433 kts | 148° |
| 2026-05-05 20:15 | 49.71244 | 0.92756 | 33238 ft | 432 kts | 148° |
| 2026-05-05 20:16 | 49.68664 | 0.95182 | 33480 ft | 433 kts | 148° |
| 2026-05-05 20:16 | 49.66092 | 0.97597 | 33731 ft | 433 kts | 148° |
| 2026-05-05 20:16 | 49.63527 | 1.00007 | 34023 ft | 431 kts | 148° |
| 2026-05-05 20:16 | 49.60972 | 1.02405 | 34296 ft | 430 kts | 148° |
| 2026-05-05 20:17 | 49.58402 | 1.04809 | 34506 ft | 430 kts | 148° |
| 2026-05-05 20:17 | 49.55840 | 1.07204 | 34684 ft | 431 kts | 148° |
| 2026-05-05 20:17 | 49.53307 | 1.09567 | 34895 ft | 431 kts | 149° |
| 2026-05-05 20:17 | 49.50705 | 1.11993 | 35106 ft | 432 kts | 149° |
| 2026-05-05 20:18 | 49.48129 | 1.14393 | 35307 ft | 432 kts | 149° |
| 2026-05-05 20:18 | 49.45559 | 1.16785 | 35499 ft | 432 kts | 149° |
| 2026-05-05 20:18 | 49.43026 | 1.19140 | 35697 ft | 431 kts | 149° |
| 2026-05-05 20:18 | 49.40462 | 1.21518 | 35949 ft | 429 kts | 149° |
| 2026-05-05 20:19 | 49.37906 | 1.23885 | 36205 ft | 427 kts | 149° |
| 2026-05-05 20:19 | 49.35371 | 1.26232 | 36456 ft | 424 kts | 149° |
| 2026-05-05 20:19 | 49.32849 | 1.28565 | 36707 ft | 422 kts | 149° |
| 2026-05-05 20:19 | 49.30306 | 1.30914 | 36894 ft | 421 kts | 149° |
| 2026-05-05 20:20 | 49.27817 | 1.33210 | 36895 ft | 425 kts | 149° |
| 2026-05-05 20:20 | 49.22709 | 1.37914 | 36892 ft | 432 kts | 149° |
| 2026-05-05 20:21 | 49.17503 | 1.42693 | 36890 ft | 440 kts | 149° |
| 2026-05-05 20:21 | 49.12219 | 1.47535 | 36887 ft | 446 kts | 149° |
| 2026-05-05 20:22 | 49.06889 | 1.52406 | 36880 ft | 446 kts | 149° |
| 2026-05-05 20:22 | 49.01832 | 1.57015 | 36882 ft | 446 kts | 149° |
| 2026-05-05 20:23 | 48.96506 | 1.61859 | 36879 ft | 446 kts | 149° |
| 2026-05-05 20:23 | 48.91174 | 1.66696 | 36887 ft | 446 kts | 149° |
| 2026-05-05 20:24 | 48.85839 | 1.71522 | 36884 ft | 446 kts | 149° |
| 2026-05-05 20:24 | 48.80537 | 1.76308 | 36896 ft | 446 kts | 150° |
| 2026-05-05 20:25 | 48.75183 | 1.81130 | 36891 ft | 447 kts | 150° |
| 2026-05-05 20:25 | 48.69826 | 1.85939 | 36894 ft | 447 kts | 150° |
| 2026-05-05 20:26 | 48.64473 | 1.90734 | 36888 ft | 446 kts | 150° |
| 2026-05-05 20:26 | 48.59119 | 1.95517 | 36852 ft | 447 kts | 150° |
| 2026-05-05 20:27 | 48.53759 | 2.00297 | 36812 ft | 447 kts | 150° |
| 2026-05-05 20:27 | 48.48441 | 2.05025 | 36824 ft | 446 kts | 150° |
| 2026-05-05 20:28 | 48.43054 | 2.09805 | 36839 ft | 446 kts | 150° |
| 2026-05-05 20:28 | 48.37701 | 2.14538 | 36805 ft | 447 kts | 150° |
| 2026-05-05 20:29 | 48.32376 | 2.19237 | 36830 ft | 446 kts | 150° |
| 2026-05-05 20:29 | 48.26976 | 2.23992 | 36805 ft | 447 kts | 150° |
| 2026-05-05 20:30 | 48.21611 | 2.28703 | 36807 ft | 447 kts | 150° |
| 2026-05-05 20:30 | 48.16265 | 2.33387 | 36828 ft | 447 kts | 150° |
| 2026-05-05 20:31 | 48.10668 | 2.37389 | 36882 ft | 445 kts | 161° |
| 2026-05-05 20:31 | 48.04766 | 2.40275 | 36871 ft | 446 kts | 163° |
| 2026-05-05 20:32 | 47.98815 | 2.43117 | 36886 ft | 446 kts | 162° |
| 2026-05-05 20:32 | 47.92965 | 2.46072 | 36873 ft | 447 kts | 162° |
| 2026-05-05 20:33 | 47.87070 | 2.49008 | 36883 ft | 447 kts | 162° |
| 2026-05-05 20:33 | 47.81156 | 2.51900 | 36894 ft | 447 kts | 162° |
| 2026-05-05 20:34 | 47.75213 | 2.54828 | 36898 ft | 447 kts | 162° |
| 2026-05-05 20:34 | 47.69342 | 2.57717 | 36900 ft | 447 kts | 162° |
| 2026-05-05 20:35 | 47.63445 | 2.60602 | 36888 ft | 446 kts | 162° |
| 2026-05-05 20:35 | 47.57535 | 2.63488 | 36851 ft | 446 kts | 162° |
| 2026-05-05 20:36 | 47.51636 | 2.66365 | 36828 ft | 446 kts | 162° |
| 2026-05-05 20:36 | 47.45740 | 2.69231 | 36813 ft | 446 kts | 163° |
| 2026-05-05 20:37 | 47.39863 | 2.72084 | 36818 ft | 447 kts | 163° |
| 2026-05-05 20:37 | 47.33964 | 2.74938 | 36870 ft | 446 kts | 163° |
| 2026-05-05 20:38 | 47.28069 | 2.77784 | 36898 ft | 446 kts | 163° |
| 2026-05-05 20:38 | 47.22172 | 2.80626 | 36900 ft | 446 kts | 163° |
| 2026-05-05 20:39 | 47.16258 | 2.83468 | 36900 ft | 446 kts | 163° |
| 2026-05-05 20:39 | 47.10354 | 2.86294 | 36909 ft | 446 kts | 163° |
| 2026-05-05 20:40 | 47.04447 | 2.89121 | 36903 ft | 446 kts | 163° |
| 2026-05-05 20:40 | 46.98537 | 2.91945 | 36899 ft | 446 kts | 163° |
| 2026-05-05 20:41 | 46.92642 | 2.94749 | 36896 ft | 445 kts | 163° |
| 2026-05-05 20:41 | 46.86746 | 2.97546 | 36867 ft | 445 kts | 163° |
| 2026-05-05 20:42 | 46.80860 | 3.00333 | 36826 ft | 445 kts | 164° |
| 2026-05-05 20:42 | 46.74989 | 3.03107 | 36816 ft | 445 kts | 164° |
| 2026-05-05 20:43 | 46.69109 | 3.05883 | 36818 ft | 445 kts | 164° |
| 2026-05-05 20:43 | 46.63209 | 3.08656 | 36820 ft | 446 kts | 164° |
| 2026-05-05 20:44 | 46.57302 | 3.11434 | 36859 ft | 445 kts | 164° |
| 2026-05-05 20:44 | 46.52384 | 3.13849 | 36910 ft | 445 kts | 162° |
| 2026-05-05 20:45 | 46.43687 | 3.18554 | 36921 ft | 446 kts | 162° |
| 2026-05-05 20:45 | 46.37873 | 3.21690 | 36923 ft | 446 kts | 162° |
| 2026-05-05 20:46 | 46.32051 | 3.24796 | 36904 ft | 446 kts | 162° |
| 2026-05-05 20:46 | 46.26236 | 3.27914 | 36916 ft | 445 kts | 162° |
| 2026-05-05 20:47 | 46.20442 | 3.31012 | 36902 ft | 445 kts | 162° |
| 2026-05-05 20:47 | 46.14620 | 3.34109 | 36860 ft | 445 kts | 162° |
| 2026-05-05 20:48 | 46.08807 | 3.37202 | 36835 ft | 445 kts | 162° |
| 2026-05-05 20:48 | 46.03027 | 3.40266 | 36856 ft | 444 kts | 162° |
| 2026-05-05 20:49 | 45.97216 | 3.43347 | 36856 ft | 444 kts | 163° |
| 2026-05-05 20:49 | 45.91443 | 3.46391 | 36880 ft | 444 kts | 163° |
| 2026-05-05 20:50 | 45.85599 | 3.49401 | 36876 ft | 443 kts | 166° |
| 2026-05-05 20:50 | 45.79732 | 3.51971 | 36873 ft | 443 kts | 167° |
| 2026-05-05 20:51 | 45.73821 | 3.54467 | 36909 ft | 443 kts | 167° |
| 2026-05-05 20:51 | 45.67919 | 3.57010 | 36947 ft | 442 kts | 166° |
| 2026-05-05 20:52 | 45.62014 | 3.59555 | 36935 ft | 443 kts | 167° |
| 2026-05-05 20:52 | 45.56105 | 3.62079 | 36936 ft | 443 kts | 167° |
| 2026-05-05 20:53 | 45.50206 | 3.64598 | 36938 ft | 443 kts | 167° |
| 2026-05-05 20:53 | 45.44303 | 3.67116 | 36936 ft | 443 kts | 167° |
| 2026-05-05 20:54 | 45.38395 | 3.69627 | 36946 ft | 443 kts | 167° |
| 2026-05-05 20:54 | 45.32689 | 3.72963 | 36919 ft | 451 kts | 149° |
| 2026-05-05 20:55 | 45.30330 | 3.75925 | 36897 ft | 458 kts | 136° |
| 2026-05-05 20:55 | 45.28275 | 3.79352 | 36927 ft | 462 kts | 133° |
| 2026-05-05 20:55 | 45.24236 | 3.86485 | 36923 ft | 462 kts | 134° |
| 2026-05-05 20:56 | 45.20061 | 3.93387 | 36923 ft | 461 kts | 136° |
| 2026-05-05 20:56 | 45.15824 | 4.00196 | 36920 ft | 461 kts | 135° |
| 2026-05-05 20:57 | 45.11642 | 4.07092 | 36922 ft | 461 kts | 135° |
| 2026-05-05 20:57 | 45.07459 | 4.13985 | 36885 ft | 461 kts | 136° |
| 2026-05-05 20:58 | 45.03272 | 4.20801 | 36869 ft | 461 kts | 136° |
| 2026-05-05 20:58 | 44.99066 | 4.27647 | 36871 ft | 461 kts | 136° |
| 2026-05-05 20:59 | 44.94826 | 4.34542 | 36883 ft | 462 kts | 136° |
| 2026-05-05 20:59 | 44.90633 | 4.41340 | 36909 ft | 462 kts | 137° |
| 2026-05-05 21:00 | 44.86410 | 4.48171 | 36949 ft | 462 kts | 137° |
| 2026-05-05 21:00 | 44.82184 | 4.54988 | 36961 ft | 463 kts | 137° |
| 2026-05-05 21:01 | 44.77939 | 4.61819 | 36961 ft | 463 kts | 137° |
| 2026-05-05 21:01 | 44.73687 | 4.68643 | 36961 ft | 463 kts | 137° |
| 2026-05-05 21:02 | 44.69444 | 4.75445 | 36968 ft | 461 kts | 137° |
| 2026-05-05 21:02 | 44.65210 | 4.82209 | 36938 ft | 460 kts | 137° |
| 2026-05-05 21:03 | 44.61029 | 4.88869 | 36898 ft | 459 kts | 137° |
| 2026-05-05 21:03 | 44.56762 | 4.95654 | 36880 ft | 458 kts | 138° |
| 2026-05-05 21:04 | 44.54657 | 4.99002 | 36725 ft | 454 kts | 138° |
| 2026-05-05 21:04 | 44.52575 | 5.02307 | 36151 ft | 453 kts | 139° |
| 2026-05-05 21:04 | 44.50475 | 5.05624 | 35270 ft | 458 kts | 139° |
| 2026-05-05 21:04 | 44.48367 | 5.08941 | 34287 ft | 465 kts | 140° |
| 2026-05-05 21:05 | 44.46183 | 5.12394 | 33329 ft | 469 kts | 140° |
| 2026-05-05 21:05 | 44.44062 | 5.15774 | 32600 ft | 467 kts | 140° |
| 2026-05-05 21:05 | 44.41925 | 5.19191 | 31970 ft | 465 kts | 140° |
| 2026-05-05 21:05 | 44.39793 | 5.22585 | 31357 ft | 463 kts | 140° |
| 2026-05-05 21:06 | 44.37644 | 5.25922 | 30616 ft | 459 kts | 143° |
| 2026-05-05 21:06 | 44.35237 | 5.28865 | 30098 ft | 452 kts | 149° |
| 2026-05-05 21:06 | 44.32804 | 5.31545 | 29683 ft | 452 kts | 151° |
| 2026-05-05 21:06 | 44.30301 | 5.34220 | 29235 ft | 453 kts | 151° |
| 2026-05-05 21:07 | 44.27786 | 5.36894 | 28747 ft | 451 kts | 151° |
| 2026-05-05 21:07 | 44.25324 | 5.39546 | 28302 ft | 443 kts | 150° |
| 2026-05-05 21:07 | 44.22921 | 5.42174 | 27898 ft | 434 kts | 150° |
| 2026-05-05 21:07 | 44.20576 | 5.44752 | 27505 ft | 424 kts | 150° |
| 2026-05-05 21:08 | 44.18276 | 5.47269 | 27117 ft | 416 kts | 150° |
| 2026-05-05 21:08 | 44.16018 | 5.49721 | 26761 ft | 407 kts | 150° |
| 2026-05-05 21:08 | 44.13803 | 5.52110 | 26390 ft | 400 kts | 150° |
| 2026-05-05 21:08 | 44.11620 | 5.54460 | 26018 ft | 394 kts | 150° |
| 2026-05-05 21:09 | 44.09455 | 5.56792 | 25648 ft | 393 kts | 150° |
| 2026-05-05 21:09 | 44.07297 | 5.59120 | 25272 ft | 390 kts | 149° |
| 2026-05-05 21:09 | 44.05162 | 5.61423 | 24901 ft | 388 kts | 149° |
| 2026-05-05 21:09 | 44.03033 | 5.63724 | 24526 ft | 385 kts | 149° |
| 2026-05-05 21:10 | 44.00919 | 5.66007 | 24154 ft | 384 kts | 149° |
| 2026-05-05 21:10 | 43.98845 | 5.68240 | 23785 ft | 381 kts | 149° |
| 2026-05-05 21:10 | 43.96751 | 5.70488 | 23412 ft | 379 kts | 149° |
| 2026-05-05 21:10 | 43.94672 | 5.72721 | 23038 ft | 377 kts | 149° |
| 2026-05-05 21:11 | 43.92579 | 5.74969 | 22661 ft | 375 kts | 148° |
| 2026-05-05 21:11 | 43.90548 | 5.77148 | 22293 ft | 373 kts | 148° |
| 2026-05-05 21:11 | 43.88500 | 5.79345 | 21919 ft | 371 kts | 148° |
| 2026-05-05 21:11 | 43.86467 | 5.81526 | 21546 ft | 369 kts | 148° |
| 2026-05-05 21:12 | 43.84440 | 5.83695 | 21176 ft | 368 kts | 148° |
| 2026-05-05 21:12 | 43.82384 | 5.85884 | 20791 ft | 365 kts | 148° |
| 2026-05-05 21:12 | 43.80380 | 5.88017 | 20310 ft | 365 kts | 148° |
| 2026-05-05 21:12 | 43.78365 | 5.90165 | 19812 ft | 364 kts | 148° |
| 2026-05-05 21:13 | 43.76364 | 5.92305 | 19343 ft | 363 kts | 148° |
| 2026-05-05 21:13 | 43.74360 | 5.94435 | 18851 ft | 363 kts | 148° |
| 2026-05-05 21:13 | 43.72353 | 5.96561 | 18304 ft | 363 kts | 148° |
| 2026-05-05 21:13 | 43.70371 | 5.98662 | 17830 ft | 362 kts | 148° |
| 2026-05-05 21:14 | 43.68378 | 6.00778 | 17352 ft | 361 kts | 147° |
| 2026-05-05 21:14 | 43.66393 | 6.02885 | 16900 ft | 359 kts | 147° |
| 2026-05-05 21:14 | 43.64412 | 6.04981 | 16434 ft | 357 kts | 147° |
| 2026-05-05 21:14 | 43.62445 | 6.07049 | 16051 ft | 353 kts | 147° |
| 2026-05-05 21:15 | 43.60522 | 6.09135 | 15661 ft | 352 kts | 142° |
| 2026-05-05 21:15 | 43.58941 | 6.11773 | 15085 ft | 363 kts | 124° |
| 2026-05-05 21:15 | 43.58009 | 6.15015 | 14685 ft | 366 kts | 109° |
| 2026-05-05 21:15 | 43.57465 | 6.18416 | 14409 ft | 360 kts | 104° |
| 2026-05-05 21:16 | 43.57029 | 6.21817 | 13971 ft | 360 kts | 104° |
| 2026-05-05 21:16 | 43.56625 | 6.25215 | 13505 ft | 360 kts | 103° |
| 2026-05-05 21:16 | 43.56228 | 6.28617 | 13085 ft | 357 kts | 103° |
| 2026-05-05 21:16 | 43.55844 | 6.31963 | 12814 ft | 351 kts | 102° |
| 2026-05-05 21:17 | 43.55465 | 6.35282 | 12394 ft | 349 kts | 103° |
| 2026-05-05 21:17 | 43.55027 | 6.38539 | 12043 ft | 342 kts | 110° |
| 2026-05-05 21:17 | 43.54160 | 6.41546 | 11729 ft | 334 kts | 119° |
| 2026-05-05 21:17 | 43.53012 | 6.44293 | 11272 ft | 331 kts | 128° |
| 2026-05-05 21:18 | 43.51657 | 6.46859 | 10800 ft | 331 kts | 130° |
| 2026-05-05 21:18 | 43.50292 | 6.49398 | 10417 ft | 328 kts | 130° |
| 2026-05-05 21:18 | 43.49041 | 6.51977 | 10048 ft | 329 kts | 120° |
| 2026-05-05 21:18 | 43.48317 | 6.54954 | 9746 ft | 328 kts | 106° |
| 2026-05-05 21:19 | 43.47842 | 6.58027 | 9375 ft | 327 kts | 103° |
| 2026-05-05 21:19 | 43.47701 | 6.61157 | 9008 ft | 327 kts | 92° |
| 2026-05-05 21:19 | 43.47806 | 6.64263 | 8585 ft | 322 kts | 89° |
| 2026-05-05 21:19 | 43.47973 | 6.67308 | 8088 ft | 317 kts | 88° |
| 2026-05-05 21:20 | 43.48047 | 6.70316 | 7584 ft | 309 kts | 99° |
| 2026-05-05 21:20 | 43.47589 | 6.73149 | 7192 ft | 298 kts | 109° |
| 2026-05-05 21:20 | 43.46967 | 6.75810 | 6839 ft | 288 kts | 111° |
| 2026-05-05 21:20 | 43.46315 | 6.78375 | 6500 ft | 279 kts | 112° |
| 2026-05-05 21:21 | 43.45671 | 6.80861 | 6149 ft | 273 kts | 112° |
| 2026-05-05 21:21 | 43.45033 | 6.83296 | 5776 ft | 267 kts | 112° |
| 2026-05-05 21:21 | 43.44550 | 6.85750 | 5383 ft | 265 kts | 100° |
| 2026-05-05 21:21 | 43.44422 | 6.88259 | 5062 ft | 261 kts | 92° |
| 2026-05-05 21:22 | 43.44661 | 6.90722 | 4806 ft | 260 kts | 72° |
| 2026-05-05 21:22 | 43.45137 | 6.92213 | 4719 ft | 254 kts | 63° |
| 2026-05-05 21:22 | 43.46171 | 6.94263 | 4592 ft | 245 kts | 50° |
| 2026-05-05 21:22 | 43.47314 | 6.95964 | 4467 ft | 238 kts | 46° |
| 2026-05-05 21:23 | 43.48466 | 6.97546 | 4340 ft | 231 kts | 44° |
| 2026-05-05 21:23 | 43.49617 | 6.99083 | 4142 ft | 228 kts | 45° |
| 2026-05-05 21:23 | 43.50742 | 7.00616 | 3903 ft | 227 kts | 45° |
| 2026-05-05 21:23 | 43.51859 | 7.02149 | 3624 ft | 227 kts | 45° |
| 2026-05-05 21:24 | 43.52984 | 7.03690 | 3342 ft | 228 kts | 45° |
| 2026-05-05 21:24 | 43.54115 | 7.05232 | 3038 ft | 228 kts | 45° |
| 2026-05-05 21:24 | 43.55233 | 7.06761 | 2742 ft | 224 kts | 45° |
| 2026-05-05 21:24 | 43.56331 | 7.08263 | 2447 ft | 220 kts | 45° |
| 2026-05-05 21:25 | 43.57405 | 7.09738 | 2157 ft | 216 kts | 45° |
| 2026-05-05 21:25 | 43.58104 | 7.10697 | 1969 ft | 213 kts | 45° |
| 2026-05-05 21:25 | 43.59141 | 7.12119 | 1691 ft | 207 kts | 45° |
| 2026-05-05 21:25 | 43.60141 | 7.13488 | 1438 ft | 195 kts | 47° |
| 2026-05-05 21:26 | 43.61065 | 7.14753 | 1199 ft | 181 kts | 47° |
| 2026-05-05 21:26 | 43.61932 | 7.15944 | 947 ft | 170 kts | 46° |
| 2026-05-05 21:26 | 43.62739 | 7.17052 | 728 ft | 159 kts | 46° |
| 2026-05-05 21:26 | 43.63498 | 7.18094 | 515 ft | 149 kts | 46° |
| 2026-05-05 21:27 | 43.64210 | 7.19071 | 322 ft | 140 kts | 46° |
| 2026-05-05 21:27 | 43.64892 | 7.20001 | 140 ft | 137 kts | 46° |
| 2026-05-05 21:27 | 43.65562 | 7.20930 | 29 ft | 132 kts | 46° |
| 2026-05-05 21:27 | 43.66060 | 7.21615 | 26 ft | 61 kts | 45° |
| 2026-05-05 21:28 | 43.66254 | 7.21879 | 26 ft | 30 kts | 43° |
| 2026-05-05 21:28 | 43.66429 | 7.22020 | 26 ft | 25 kts | 22° |
| 2026-05-05 21:28 | 43.66545 | 7.22036 | 26 ft | 15 kts | 312° |
| 2026-05-05 21:28 | 43.66533 | 7.21942 | 26 ft | 12 kts | 225° |
| 2026-05-05 21:29 | 43.66469 | 7.21855 | 26 ft | 14 kts | 225° |
| 2026-05-05 21:29 | 43.66391 | 7.21747 | 26 ft | 17 kts | 225° |
| 2026-05-05 21:29 | 43.66319 | 7.21640 | 26 ft | 12 kts | 253° |
| 2026-05-05 21:29 | 43.66366 | 7.21544 | 26 ft | 14 kts | 310° |
| 2026-05-05 21:30 | 43.66361 | 7.21413 | 26 ft | 15 kts | 260° |
| 2026-05-05 21:30 | 43.66349 | 7.21315 | 26 ft | 6 kts | 261° |
| 2026-05-05 21:30 | 43.66369 | 7.21286 | 26 ft | 4 kts | 11° |
| 2026-05-05 21:30 | 43.66405 | 7.21289 | 26 ft | 6 kts | 1° |
| 2026-05-05 21:31 | 43.66414 | 7.21289 | 26 ft | 0 kts | 1° |